createdAt,value
2022-11-17T00:02:25.108Z,14.06
2022-11-17T00:04:52.429Z,14.04
2022-11-17T00:07:19.909Z,14.07
2022-11-17T00:09:47.169Z,14.25
2022-11-17T00:12:33.239Z,14.42
2022-11-17T00:15:00.567Z,14.43
2022-11-17T00:17:27.894Z,14.37
2022-11-17T00:20:15.587Z,14.25
2022-11-17T00:22:42.963Z,14.30
2022-11-17T00:25:10.195Z,14.27
2022-11-17T00:27:37.658Z,14.24
2022-11-17T00:30:05.951Z,14.31
2022-11-17T00:32:51.811Z,14.40
2022-11-17T00:35:19.008Z,14.52
2022-11-17T00:38:04.901Z,14.50
2022-11-17T00:40:32.305Z,14.37
2022-11-17T00:42:59.607Z,14.30
2022-11-17T00:45:26.868Z,14.41
2022-11-17T00:47:54.066Z,14.47
2022-11-17T00:50:21.296Z,14.54
2022-11-17T00:52:48.529Z,14.35
2022-11-17T00:55:15.810Z,14.06
2022-11-17T00:57:43.015Z,14.39
2022-11-17T01:00:10.784Z,14.30
2022-11-17T01:02:38.018Z,14.27
2022-11-17T01:05:05.563Z,14.41
2022-11-17T01:07:32.951Z,14.44
2022-11-17T01:10:00.225Z,14.61
2022-11-17T01:12:27.897Z,14.46
2022-11-17T01:14:55.204Z,14.31
2022-11-17T01:17:22.436Z,14.32
2022-11-17T01:19:49.639Z,14.34
2022-11-17T01:22:17.862Z,14.43
2022-11-17T01:24:45.053Z,14.46
2022-11-17T01:27:12.228Z,14.37
2022-11-17T01:29:39.473Z,14.38
2022-11-17T01:32:06.833Z,14.42
2022-11-17T01:34:34.021Z,14.38
2022-11-17T01:37:19.391Z,14.47
2022-11-17T01:39:47.756Z,14.30
2022-11-17T01:42:23.659Z,14.31
2022-11-17T01:44:58.885Z,14.29
2022-11-17T01:47:44.157Z,14.40
2022-11-17T01:50:22.125Z,14.43
2022-11-17T01:52:50.810Z,14.08
2022-11-17T01:55:20.025Z,14.01
2022-11-17T01:57:51.320Z,13.84
2022-11-17T02:00:18.939Z,14.00
2022-11-17T02:02:46.437Z,13.98
2022-11-17T02:05:22.631Z,14.09
2022-11-17T02:07:51.456Z,14.29
2022-11-17T02:10:18.706Z,14.16
2022-11-17T02:12:46.231Z,14.32
2022-11-17T02:15:13.578Z,14.35
2022-11-17T02:17:41.923Z,14.19
2022-11-17T02:20:22.459Z,14.29
2022-11-17T02:22:52.825Z,14.32
2022-11-17T02:25:48.882Z,14.36
2022-11-17T02:28:31.458Z,14.37
2022-11-17T02:31:07.608Z,14.05
2022-11-17T02:33:49.775Z,13.96
2022-11-17T02:36:21.071Z,14.16
2022-11-17T02:39:10.453Z,14.05
2022-11-17T02:41:49.603Z,14.05
2022-11-17T02:44:24.149Z,13.92
2022-11-17T02:46:55.791Z,14.06
2022-11-17T02:49:26.065Z,13.99
2022-11-17T02:51:54.194Z,14.05
2022-11-17T02:54:27.140Z,13.80
2022-11-17T02:56:54.648Z,13.80
2022-11-17T02:59:26.788Z,13.97
2022-11-17T03:01:53.986Z,13.99
2022-11-17T03:04:23.910Z,14.26
2022-11-17T03:07:31.591Z,14.22
2022-11-17T03:10:41.942Z,13.94
2022-11-17T03:13:52.779Z,13.55
2022-11-17T03:16:32.145Z,13.57
2022-11-17T03:19:29.450Z,13.43
2022-11-17T03:22:07.992Z,13.21
2022-11-17T03:24:48.516Z,13.34
2022-11-17T03:27:29.271Z,13.56
2022-11-17T03:30:00.772Z,13.46
2022-11-17T03:32:31.811Z,13.66
2022-11-17T03:35:05.160Z,13.57
2022-11-17T03:37:33.537Z,13.51
2022-11-17T03:40:09.967Z,13.51
2022-11-17T03:42:39.621Z,13.24
2022-11-17T03:45:13.380Z,13.29
2022-11-17T03:47:42.035Z,13.44
2022-11-17T03:50:14.361Z,13.50
2022-11-17T03:52:42.428Z,13.49
2022-11-17T03:55:10.109Z,13.51
2022-11-17T03:58:00.691Z,13.40
2022-11-17T04:00:28.181Z,13.54
2022-11-17T04:02:58.362Z,13.09
2022-11-17T04:05:25.799Z,13.30
2022-11-17T04:07:52.892Z,13.14
2022-11-17T04:10:22.215Z,13.21
2022-11-17T04:13:08.364Z,13.01
2022-11-17T04:15:54.300Z,13.23
2022-11-17T04:18:22.586Z,13.27
2022-11-17T04:20:51.146Z,13.36
2022-11-17T04:23:18.559Z,13.27
2022-11-17T04:26:12.002Z,13.28
2022-11-17T04:28:47.175Z,13.26
2022-11-17T04:31:29.301Z,13.31
2022-11-17T04:34:01.524Z,13.18
2022-11-17T04:36:45.642Z,12.97
2022-11-17T04:39:14.312Z,12.68
2022-11-17T04:41:54.328Z,12.57
2022-11-17T04:44:23.242Z,12.81
2022-11-17T04:46:50.581Z,13.01
2022-11-17T04:49:18.955Z,12.88
2022-11-17T04:51:46.794Z,12.82
2022-11-17T04:54:16.354Z,13.01
2022-11-17T04:56:43.942Z,13.03
2022-11-17T04:59:11.173Z,12.84
2022-11-17T05:01:38.639Z,12.93
2022-11-17T05:04:08.540Z,13.00
2022-11-17T05:06:39.965Z,12.95
2022-11-17T05:09:12.250Z,13.03
2022-11-17T05:12:18.093Z,12.88
2022-11-17T05:14:47.641Z,12.81
2022-11-17T05:17:14.863Z,12.58
2022-11-17T05:19:44.440Z,12.60
2022-11-17T05:22:35.647Z,12.46
2022-11-17T05:25:03.239Z,12.40
2022-11-17T05:27:30.574Z,12.45
2022-11-17T05:29:57.849Z,12.55
2022-11-17T05:32:27.184Z,12.41
2022-11-17T05:34:54.336Z,12.48
2022-11-17T05:37:21.624Z,12.72
2022-11-17T05:39:48.855Z,12.75
2022-11-17T05:42:16.162Z,12.69
2022-11-17T05:44:43.577Z,12.75
2022-11-17T05:47:10.769Z,12.63
2022-11-17T05:49:38.020Z,12.70
2022-11-17T05:52:05.400Z,12.80
2022-11-17T05:54:32.627Z,12.75
2022-11-17T05:57:07.812Z,12.68
2022-11-17T05:59:45.740Z,12.59
2022-11-17T06:02:17.919Z,12.58
2022-11-17T06:04:46.444Z,12.69
2022-11-17T06:07:13.787Z,12.71
2022-11-17T06:09:42.143Z,12.63
2022-11-17T06:12:12.004Z,12.88
2022-11-17T06:14:39.882Z,12.73
2022-11-17T06:17:22.209Z,12.76
2022-11-17T06:20:19.623Z,12.81
2022-11-17T06:22:48.489Z,12.63
2022-11-17T06:25:17.890Z,12.86
2022-11-17T06:27:46.327Z,12.73
2022-11-17T06:30:13.583Z,12.77
2022-11-17T06:32:43.630Z,12.90
2022-11-17T06:35:13.353Z,12.83
2022-11-17T06:37:40.640Z,12.86
2022-11-17T06:40:11.664Z,12.84
2022-11-17T06:42:58.248Z,12.79
2022-11-17T06:45:25.502Z,12.96
2022-11-17T06:47:53.519Z,12.89
2022-11-17T06:50:21.073Z,12.86
2022-11-17T06:52:48.244Z,12.97
2022-11-17T06:55:15.633Z,12.85
2022-11-17T06:57:42.997Z,12.93
2022-11-17T07:00:11.027Z,12.86
2022-11-17T07:02:38.344Z,12.92
2022-11-17T07:05:05.979Z,12.76
2022-11-17T07:07:33.399Z,12.96
2022-11-17T07:10:00.728Z,13.03
2022-11-17T07:12:28.028Z,12.95
2022-11-17T07:14:55.854Z,13.02
2022-11-17T07:17:23.029Z,13.13
2022-11-17T07:19:50.409Z,12.93
2022-11-17T07:22:17.636Z,12.94
2022-11-17T07:24:44.968Z,12.85
2022-11-17T07:27:12.191Z,12.88
2022-11-17T07:29:39.394Z,13.03
2022-11-17T07:32:06.544Z,13.08
2022-11-17T07:34:33.995Z,13.01
2022-11-17T07:37:01.373Z,12.99
2022-11-17T07:39:28.727Z,13.16
2022-11-17T07:41:55.927Z,13.15
2022-11-17T07:44:23.175Z,13.19
2022-11-17T07:46:50.408Z,13.80
2022-11-17T07:49:17.642Z,14.02
2022-11-17T07:51:45.996Z,13.76
2022-11-17T07:54:13.236Z,13.66
2022-11-17T07:56:40.523Z,13.78
2022-11-17T07:59:07.923Z,13.65
2022-11-17T08:01:35.236Z,13.52
2022-11-17T08:04:02.549Z,13.55
2022-11-17T08:06:29.964Z,13.54
2022-11-17T08:08:57.246Z,13.44
2022-11-17T08:11:24.473Z,13.40
2022-11-17T08:13:51.832Z,13.35
2022-11-17T08:16:19.377Z,13.66
2022-11-17T08:18:52.004Z,13.54
2022-11-17T08:21:19.884Z,13.39
2022-11-17T08:23:50.940Z,13.62
2022-11-17T08:26:18.309Z,13.77
2022-11-17T08:28:47.090Z,13.77
2022-11-17T08:31:14.396Z,13.76
2022-11-17T08:33:41.638Z,13.80
2022-11-17T08:36:08.896Z,13.85
2022-11-17T08:38:37.045Z,13.85
2022-11-17T08:41:06.957Z,13.95
2022-11-17T08:43:34.919Z,13.88
2022-11-17T08:46:02.716Z,14.00
2022-11-17T08:48:31.592Z,13.66
2022-11-17T08:50:59.267Z,13.72
2022-11-17T08:53:27.050Z,13.54
2022-11-17T08:55:54.561Z,13.76
2022-11-17T08:58:21.761Z,13.68
2022-11-17T09:00:49.171Z,13.90
2022-11-17T09:03:16.437Z,14.08
2022-11-17T09:05:47.129Z,14.07
2022-11-17T09:11:06.640Z,13.93
2022-11-17T09:13:34.355Z,13.98
2022-11-17T09:16:11.443Z,13.98
2022-11-17T09:18:39.377Z,14.03
2022-11-17T09:21:09.262Z,13.99
2022-11-17T09:23:36.929Z,14.09
2022-11-17T09:26:06.446Z,14.11
2022-11-17T09:28:34.189Z,13.87
2022-11-17T09:31:16.527Z,13.89
2022-11-17T09:33:44.267Z,13.55
2022-11-17T09:36:12.855Z,13.08
2022-11-17T09:38:40.505Z,13.12
2022-11-17T09:41:27.861Z,13.24
2022-11-17T09:44:15.797Z,13.07
2022-11-17T09:46:55.371Z,13.08
2022-11-17T09:49:47.193Z,13.25
2022-11-17T09:52:27.039Z,13.19
2022-11-17T09:55:00.461Z,13.25
2022-11-17T09:57:38.979Z,13.30
2022-11-17T10:00:22.835Z,13.46
2022-11-17T10:02:50.997Z,13.65
2022-11-17T10:05:26.431Z,13.80
2022-11-17T10:07:55.307Z,14.01
2022-11-17T10:10:35.535Z,14.09
2022-11-17T10:13:05.239Z,13.97
2022-11-17T10:16:04.176Z,14.09
2022-11-17T10:18:38.154Z,14.38
2022-11-17T10:21:07.327Z,14.31
2022-11-17T10:23:42.841Z,14.42
2022-11-17T10:26:15.154Z,14.52
2022-11-17T10:28:42.754Z,14.35
2022-11-17T10:31:15.506Z,14.57
2022-11-17T10:33:44.209Z,14.53
2022-11-17T10:36:23.665Z,14.68
2022-11-17T10:38:53.284Z,14.97
2022-11-17T10:41:41.613Z,14.90
2022-11-17T10:44:20.845Z,14.99
2022-11-17T10:47:00.532Z,14.91
2022-11-17T10:49:34.706Z,15.00
2022-11-17T10:52:11.495Z,14.95
2022-11-17T10:54:38.746Z,14.75
2022-11-17T10:57:09.496Z,14.51
2022-11-17T10:59:45.987Z,14.46
2022-11-17T11:02:36.987Z,14.69
2022-11-17T11:05:18.173Z,14.93
2022-11-17T11:07:45.722Z,14.68
2022-11-17T11:10:19.067Z,14.74
2022-11-17T11:12:59.298Z,14.90
2022-11-17T11:15:28.664Z,14.66
2022-11-17T11:17:56.954Z,14.66
2022-11-17T11:20:38.921Z,14.76
2022-11-17T11:23:17.051Z,14.68
2022-11-17T11:25:59.480Z,14.66
2022-11-17T11:28:40.089Z,14.24
2022-11-17T11:31:24.409Z,14.36
2022-11-17T11:34:20.864Z,14.34
2022-11-17T11:37:03.035Z,14.60
2022-11-17T11:39:52.086Z,14.35
2022-11-17T11:42:41.183Z,14.40
2022-11-17T11:45:42.019Z,14.07
2022-11-17T11:48:26.888Z,14.06
2022-11-17T11:51:02.131Z,14.06
2022-11-17T11:53:42.303Z,14.19
2022-11-17T11:56:17.422Z,14.41
2022-11-17T11:59:03.413Z,14.52
2022-11-17T12:01:43.730Z,14.64
2022-11-17T12:04:16.752Z,14.66
2022-11-17T12:06:54.105Z,14.48
2022-11-17T12:10:06.270Z,14.57
2022-11-17T12:12:39.112Z,14.51
2022-11-17T12:15:18.521Z,14.57
2022-11-17T12:18:02.415Z,14.79
2022-11-17T12:20:38.602Z,14.86
2022-11-17T12:23:24.172Z,14.94
2022-11-17T12:25:54.296Z,15.11
2022-11-17T12:29:11.870Z,15.11
2022-11-17T12:31:43.903Z,15.00
2022-11-17T12:34:26.395Z,15.09
2022-11-17T12:37:26.252Z,15.20
2022-11-17T12:40:08.039Z,15.29
2022-11-17T12:42:36.339Z,15.31
2022-11-17T12:45:07.470Z,15.43
2022-11-17T12:47:40.030Z,15.13
2022-11-17T12:50:19.536Z,14.84
2022-11-17T12:53:14.471Z,15.15
2022-11-17T12:56:07.815Z,14.98
2022-11-17T12:59:14.772Z,15.21
2022-11-17T13:02:16.821Z,15.36
2022-11-17T13:04:49.682Z,15.26
2022-11-17T13:07:23.222Z,15.13
2022-11-17T13:09:57.039Z,14.87
2022-11-17T13:12:29.473Z,15.13
2022-11-17T13:15:02.722Z,15.16
2022-11-17T13:17:35.088Z,15.20
2022-11-17T13:20:24.310Z,15.26
2022-11-17T13:23:06.521Z,15.45
2022-11-17T13:25:34.907Z,15.14
2022-11-17T13:28:05.017Z,15.32
2022-11-17T13:30:33.235Z,15.31
2022-11-17T13:33:02.679Z,15.21
2022-11-17T13:35:36.135Z,15.29
2022-11-17T13:38:23.237Z,15.12
2022-11-17T13:40:52.201Z,15.23
2022-11-17T13:43:21.494Z,15.36
2022-11-17T13:45:53.417Z,15.40
2022-11-17T13:48:34.505Z,15.47
2022-11-17T13:51:20.124Z,15.49
2022-11-17T13:54:10.029Z,15.43
2022-11-17T13:56:46.404Z,15.56
2022-11-17T13:59:37.850Z,15.39
2022-11-17T14:02:22.240Z,15.61
2022-11-17T14:05:19.822Z,15.47
2022-11-17T14:07:49.598Z,15.42
2022-11-17T14:10:19.614Z,15.68
2022-11-17T14:12:47.439Z,15.69
2022-11-17T14:15:23.339Z,15.59
2022-11-17T14:17:52.100Z,15.72
2022-11-17T14:20:26.242Z,15.91
2022-11-17T14:23:13.327Z,16.00
2022-11-17T14:25:42.330Z,15.74
2022-11-17T14:28:16.555Z,15.32
2022-11-17T14:30:47.273Z,15.34
2022-11-17T14:33:14.583Z,15.52
2022-11-17T14:35:42.861Z,15.62
2022-11-17T14:38:11.193Z,15.51
2022-11-17T14:40:38.353Z,15.55
2022-11-17T14:43:05.620Z,15.49
2022-11-17T14:45:35.320Z,15.48
2022-11-17T14:48:03.996Z,15.60
2022-11-17T14:50:31.208Z,15.43
2022-11-17T14:52:58.450Z,15.24
2022-11-17T14:55:26.509Z,15.35
2022-11-17T14:57:53.875Z,15.47
2022-11-17T15:00:21.285Z,15.46
2022-11-17T15:02:49.523Z,15.40
2022-11-17T15:05:17.489Z,15.28
2022-11-17T15:07:44.687Z,15.22
2022-11-17T15:10:11.969Z,15.15
2022-11-17T15:12:39.160Z,15.08
2022-11-17T15:15:06.875Z,14.77
2022-11-17T15:17:34.093Z,14.77
2022-11-17T15:20:01.395Z,14.64
2022-11-17T15:22:28.633Z,14.89
2022-11-17T15:24:55.914Z,14.95
2022-11-17T15:27:23.780Z,14.89
2022-11-17T15:29:51.133Z,14.79
2022-11-17T15:32:18.304Z,14.88
2022-11-17T15:34:45.582Z,14.75
2022-11-17T15:37:12.741Z,14.74
2022-11-17T15:39:39.930Z,15.05
2022-11-17T15:42:07.195Z,14.98
2022-11-17T15:44:34.391Z,14.75
2022-11-17T15:47:01.604Z,14.65
2022-11-17T15:49:28.816Z,14.78
2022-11-17T15:51:56.031Z,15.03
2022-11-17T15:54:23.557Z,15.17
2022-11-17T15:56:51.819Z,15.01
2022-11-17T15:59:19.650Z,15.05
2022-11-17T16:01:47.664Z,14.86
2022-11-17T16:04:15.960Z,14.75
2022-11-17T16:06:45.005Z,14.93
2022-11-17T16:09:13.279Z,14.84
2022-11-17T16:11:41.111Z,14.52
2022-11-17T16:14:08.696Z,14.63
2022-11-17T16:16:37.589Z,14.63
2022-11-17T16:19:05.238Z,14.50
2022-11-17T16:21:32.794Z,14.60
2022-11-17T16:24:03.338Z,14.30
2022-11-17T16:26:30.722Z,14.29
2022-11-17T16:28:59.426Z,14.38
2022-11-17T16:31:29.007Z,14.36
2022-11-17T16:34:01.473Z,14.23
2022-11-17T16:36:35.954Z,14.24
2022-11-17T16:39:08.412Z,14.29
2022-11-17T16:41:39.220Z,14.23
2022-11-17T16:44:14.773Z,14.29
2022-11-17T16:46:44.475Z,14.29
2022-11-17T16:49:15.091Z,14.32
2022-11-17T16:51:53.802Z,14.15
2022-11-17T16:54:21.263Z,14.17
2022-11-17T16:56:49.047Z,14.18
2022-11-17T16:59:16.990Z,14.25
2022-11-17T17:01:44.612Z,14.21
2022-11-17T17:04:12.330Z,14.24
2022-11-17T17:06:41.703Z,14.19
2022-11-17T17:09:10.544Z,14.21
2022-11-17T17:11:37.942Z,14.07
2022-11-17T17:14:06.440Z,13.95
2022-11-17T17:16:35.727Z,13.98
2022-11-17T17:19:04.929Z,14.05
2022-11-17T17:21:32.867Z,14.05
2022-11-17T17:24:00.551Z,14.02
2022-11-17T17:26:29.933Z,13.98
2022-11-17T17:29:00.288Z,14.02
2022-11-17T17:31:32.011Z,14.08
2022-11-17T17:34:02.037Z,14.03
2022-11-17T17:36:29.898Z,14.13
2022-11-17T17:38:58.978Z,14.14
2022-11-17T17:41:27.895Z,14.11
2022-11-17T17:44:00.542Z,14.01
2022-11-17T17:46:30.335Z,14.02
2022-11-17T17:48:58.168Z,13.89
2022-11-17T17:51:27.187Z,14.00
2022-11-17T17:53:55.935Z,13.87
2022-11-17T17:56:23.817Z,13.84
2022-11-17T17:58:51.987Z,13.86
2022-11-17T18:01:21.625Z,13.84
2022-11-17T18:03:50.215Z,13.88
2022-11-17T18:06:21.955Z,13.89
2022-11-17T18:08:49.858Z,13.76
2022-11-17T18:11:19.511Z,13.75
2022-11-17T18:13:51.424Z,13.72
2022-11-17T18:16:22.403Z,14.03
2022-11-17T18:18:50.616Z,14.06
2022-11-17T18:21:19.035Z,13.86
2022-11-17T18:23:46.472Z,13.80
2022-11-17T18:26:19.665Z,13.73
2022-11-17T18:28:55.441Z,13.86
2022-11-17T18:31:24.077Z,13.93
2022-11-17T18:33:52.448Z,13.93
2022-11-17T18:36:20.162Z,13.80
2022-11-17T18:38:47.929Z,13.99
2022-11-17T18:41:16.673Z,13.79
2022-11-17T18:43:44.450Z,13.88
2022-11-17T18:46:13.917Z,14.01
2022-11-17T18:48:43.150Z,14.15
2022-11-17T18:51:20.945Z,14.23
2022-11-17T18:53:49.945Z,14.10
2022-11-17T18:56:19.665Z,13.68
2022-11-17T18:58:47.240Z,13.71
2022-11-17T19:01:22.300Z,13.66
2022-11-17T19:03:53.743Z,13.51
2022-11-17T19:06:22.782Z,13.54
2022-11-17T19:08:50.619Z,13.57
2022-11-17T19:11:19.229Z,13.55
2022-11-17T19:13:46.963Z,13.47
2022-11-17T19:16:16.090Z,13.76
2022-11-17T19:18:45.535Z,13.71
2022-11-17T19:21:20.749Z,13.58
2022-11-17T19:23:52.439Z,13.52
2022-11-17T19:26:28.606Z,13.40
2022-11-17T19:29:01.494Z,13.32
2022-11-17T19:31:29.114Z,13.19
2022-11-17T19:33:57.188Z,13.29
2022-11-17T19:36:27.257Z,13.50
2022-11-17T19:38:56.009Z,13.44
2022-11-17T19:41:31.522Z,13.36
2022-11-17T19:44:00.861Z,13.43
2022-11-17T19:46:28.874Z,13.09
2022-11-17T19:48:57.198Z,13.06
2022-11-17T19:51:34.598Z,13.10
2022-11-17T19:54:04.098Z,13.09
2022-11-17T19:56:31.632Z,13.14
2022-11-17T19:58:58.987Z,12.99
2022-11-17T20:01:27.876Z,13.19
2022-11-17T20:03:56.307Z,13.00
2022-11-17T20:06:27.442Z,13.09
2022-11-17T20:08:55.803Z,13.02
2022-11-17T20:11:25.495Z,12.96
2022-11-17T20:13:53.889Z,13.04
2022-11-17T20:16:26.601Z,12.97
2022-11-17T20:18:56.069Z,12.90
2022-11-17T20:21:24.789Z,13.03
2022-11-17T20:23:52.561Z,13.11
2022-11-17T20:26:25.034Z,13.13
2022-11-17T20:28:52.645Z,13.02
2022-11-17T20:31:22.562Z,12.74
2022-11-17T20:33:49.845Z,12.99
2022-11-17T20:36:19.656Z,12.96
2022-11-17T20:38:54.507Z,12.92
2022-11-17T20:41:23.324Z,13.11
2022-11-17T20:43:52.675Z,13.06
2022-11-17T20:46:21.378Z,12.75
2022-11-17T20:49:06.412Z,12.74
2022-11-17T20:51:33.895Z,12.76
2022-11-17T20:54:01.091Z,12.77
2022-11-17T20:56:28.396Z,12.62
2022-11-17T20:58:55.539Z,12.94
2022-11-17T21:01:23.982Z,12.90
2022-11-17T21:03:51.815Z,12.96
2022-11-17T21:06:19.755Z,12.88
2022-11-17T21:08:47.025Z,12.81
2022-11-17T21:11:35.414Z,12.82
2022-11-17T21:14:04.401Z,12.77
2022-11-17T21:16:31.872Z,12.88
2022-11-17T21:18:59.596Z,12.66
2022-11-17T21:21:26.809Z,12.79
2022-11-17T21:23:54.720Z,12.61
2022-11-17T21:26:22.905Z,12.36
2022-11-17T21:28:50.536Z,12.74
2022-11-17T21:31:20.191Z,12.94
2022-11-17T21:33:47.453Z,12.74
2022-11-17T21:36:16.205Z,12.80
2022-11-17T21:38:49.597Z,12.61
2022-11-17T21:41:19.135Z,12.56
2022-11-17T21:43:48.742Z,12.15
2022-11-17T21:46:20.878Z,12.34
2022-11-17T21:48:48.641Z,12.18
2022-11-17T21:51:21.410Z,12.18
2022-11-17T21:53:53.184Z,12.14
2022-11-17T21:56:21.418Z,12.24
2022-11-17T21:58:48.566Z,12.31
2022-11-17T22:01:16.208Z,12.29
2022-11-17T22:03:43.673Z,12.34
2022-11-17T22:06:18.039Z,12.17
2022-11-17T22:08:46.496Z,12.31
2022-11-17T22:11:16.402Z,12.28
2022-11-17T22:13:43.591Z,12.13
2022-11-17T22:16:12.975Z,12.19
2022-11-17T22:18:41.100Z,12.01
2022-11-17T22:21:08.555Z,12.07
2022-11-17T22:23:36.034Z,12.07
2022-11-17T22:26:06.288Z,12.17
2022-11-17T22:28:33.725Z,12.29
2022-11-17T22:31:08.157Z,12.16
2022-11-17T22:33:36.024Z,11.95
2022-11-17T22:36:03.473Z,12.11
2022-11-17T22:38:31.859Z,11.97
2022-11-17T22:41:03.624Z,12.01
2022-11-17T22:43:31.230Z,12.19
2022-11-17T22:46:01.798Z,12.15
2022-11-17T22:48:29.025Z,12.12
2022-11-17T22:50:59.988Z,12.07
2022-11-17T22:53:27.634Z,11.91
2022-11-17T22:55:55.089Z,11.83
2022-11-17T22:58:22.295Z,11.80
2022-11-17T23:00:49.555Z,11.80
2022-11-17T23:03:16.840Z,12.71
2022-11-17T23:05:44.071Z,13.45
2022-11-17T23:08:11.574Z,13.66
2022-11-17T23:10:38.789Z,13.61
2022-11-17T23:13:06.053Z,12.99
2022-11-17T23:15:33.323Z,12.68
2022-11-17T23:18:00.620Z,12.45
2022-11-17T23:20:28.041Z,12.17
2022-11-17T23:22:55.226Z,12.13
2022-11-17T23:25:22.525Z,11.83
2022-11-17T23:27:49.705Z,11.91
2022-11-17T23:30:17.026Z,11.77
2022-11-17T23:32:44.624Z,11.56
2022-11-17T23:35:12.174Z,11.65
2022-11-17T23:37:39.409Z,11.60
2022-11-17T23:40:07.130Z,11.55
2022-11-17T23:42:38.674Z,11.67
2022-11-17T23:45:09.848Z,11.70
2022-11-17T23:47:37.068Z,11.68
2022-11-17T23:50:04.912Z,11.72
2022-11-17T23:52:32.600Z,11.81
2022-11-17T23:54:59.871Z,11.79
2022-11-17T23:57:27.074Z,11.73
2022-11-17T23:59:54.296Z,11.68
